Time;durP1;ratioP1;P1;durP2;ratioP2;P2;SDS_P1;SDS_P2;PMS_P1;PMS_P2;Temp;Humidity;BMP_temperature;BMP_pressure;BME280_temperature;BME280_humidity;BME280_pressure;Samples;Min_cycle;Max_cycle;Signal;HPM_P1;HPM_P2
2022/07/25 00:01:55;;;;;;;16.93;15.37;;;20.40;99.90;;;;;;5048601;28;20500;-69
2022/07/25 00:04:23;;;;;;;16.77;15.20;;;20.40;99.90;;;;;;5049733;28;20451;-69
2022/07/25 00:06:49;;;;;;;16.53;14.97;;;20.30;99.90;;;;;;5049181;28;20472;-69
2022/07/25 00:09:16;;;;;;;16.97;15.40;;;20.30;99.90;;;;;;5049103;28;20448;-70
2022/07/25 00:11:43;;;;;;;16.63;15.13;;;20.30;99.90;;;;;;5048450;28;20455;-69
2022/07/25 00:14:10;;;;;;;16.33;14.93;;;20.20;99.90;;;;;;5049265;28;20514;-69
2022/07/25 00:16:38;;;;;;;16.83;15.33;;;20.20;99.90;;;;;;5048723;28;21000;-69
2022/07/25 00:19:05;;;;;;;16.07;14.77;;;20.10;99.90;;;;;;5049135;28;20455;-68
2022/07/25 00:21:32;;;;;;;17.83;15.93;;;20.10;99.90;;;;;;5051485;28;20471;-69
2022/07/25 00:23:59;;;;;;;15.63;14.33;;;20.10;99.90;;;;;;5050382;28;20439;-68
2022/07/25 00:26:26;;;;;;;16.40;14.70;;;20.20;99.90;;;;;;5052273;28;20491;-69
2022/07/25 00:28:52;;;;;;;16.20;14.80;;;20.20;99.90;;;;;;5052642;28;20447;-69
2022/07/25 00:31:19;;;;;;;16.97;15.37;;;20.10;99.90;;;;;;5051690;28;20448;-69
2022/07/25 00:33:47;;;;;;;16.57;15.17;;;20.10;99.90;;;;;;5052549;28;20948;-69
2022/07/25 00:36:14;;;;;;;15.57;14.13;;;20.00;99.90;;;;;;5051858;28;20472;-69
2022/07/25 00:38:41;;;;;;;17.37;15.83;;;20.00;99.90;;;;;;5052611;28;20447;-70
2022/07/25 00:41:08;;;;;;;15.60;14.10;;;19.90;99.90;;;;;;5051525;28;20451;-68
2022/07/25 00:43:35;;;;;;;17.10;15.70;;;19.80;99.90;;;;;;5051945;28;20450;-68
2022/07/25 00:46:02;;;;;;;16.57;15.00;;;19.90;99.90;;;;;;5051721;28;20467;-69
2022/07/25 00:48:29;;;;;;;17.30;15.80;;;19.90;99.90;;;;;;5052408;28;20454;-69
2022/07/25 00:50:59;;;;;;;16.87;15.37;;;19.90;99.90;;;;;;5051461;28;20448;-69
2022/07/25 00:53:25;;;;;;;16.00;14.50;;;19.80;99.90;;;;;;5052148;28;20499;-69
2022/07/25 00:55:52;;;;;;;16.87;15.20;;;19.90;99.90;;;;;;5051914;28;20489;-69
2022/07/25 00:58:19;;;;;;;15.93;14.47;;;19.80;99.90;;;;;;5052057;28;20460;-69
2022/07/25 01:00:46;;;;;;;17.53;15.80;;;19.70;99.90;;;;;;5051225;28;20451;-69
2022/07/25 01:03:13;;;;;;;16.03;14.60;;;19.60;99.90;;;;;;5052079;28;20835;-68
2022/07/25 01:05:40;;;;;;;17.37;15.83;;;19.60;99.90;;;;;;5051752;28;20480;-69
2022/07/25 01:08:09;;;;;;;16.77;15.20;;;19.70;99.90;;;;;;5051922;28;20448;-69
2022/07/25 01:10:36;;;;;;;17.43;15.83;;;19.60;99.90;;;;;;5051054;28;20448;-69
2022/07/25 01:13:04;;;;;;;17.50;15.90;;;19.60;99.90;;;;;;5051569;28;20480;-69
2022/07/25 01:15:31;;;;;;;16.13;14.60;;;19.60;99.90;;;;;;5051513;28;20475;-68
2022/07/25 01:17:58;;;;;;;16.53;15.13;;;19.60;99.90;;;;;;5051821;28;20444;-69
2022/07/25 01:20:28;;;;;;;17.07;15.57;;;19.70;99.90;;;;;;5050749;28;20830;-68
2022/07/25 01:22:55;;;;;;;17.50;16.00;;;19.70;99.90;;;;;;5051493;28;20443;-69
2022/07/25 01:25:23;;;;;;;16.70;15.13;;;19.70;99.90;;;;;;5051167;28;20460;-68
2022/07/25 01:27:52;;;;;;;16.30;14.90;;;19.50;99.90;;;;;;5051424;28;20830;-68
2022/07/25 01:30:19;;;;;;;15.80;14.40;;;19.50;99.90;;;;;;5050575;28;20502;-68
2022/07/25 01:32:46;;;;;;;17.00;15.50;;;19.50;99.90;;;;;;5050710;28;20614;-68
2022/07/25 01:35:14;;;;;;;16.10;14.70;;;19.40;99.90;;;;;;5051168;28;20471;-68
2022/07/25 01:37:43;;;;;;;16.70;15.20;;;19.40;99.90;;;;;;5051979;28;20456;-68
2022/07/25 01:40:10;;;;;;;15.23;13.73;;;19.40;99.90;;;;;;5051272;28;20491;-68
2022/07/25 01:42:37;;;;;;;16.27;14.83;;;19.40;99.90;;;;;;5052022;28;20458;-68
2022/07/25 01:45:05;;;;;;;15.67;14.27;;;19.30;99.90;;;;;;5051769;28;20480;-68
2022/07/25 01:47:31;;;;;;;16.97;15.47;;;19.30;99.90;;;;;;5051662;28;20444;-68
2022/07/25 01:49:58;;;;;;;15.23;13.83;;;19.30;99.90;;;;;;5050484;28;20448;-69
2022/07/25 01:52:25;;;;;;;16.70;15.00;;;19.30;99.90;;;;;;5051404;28;20448;-68
2022/07/25 01:54:53;;;;;;;16.80;15.40;;;19.30;99.90;;;;;;5050745;28;20476;-68
2022/07/25 01:57:20;;;;;;;16.33;14.93;;;19.30;99.90;;;;;;5051214;28;20969;-68
2022/07/25 01:59:47;;;;;;;15.93;14.50;;;19.30;99.90;;;;;;5050527;28;20448;-66
2022/07/25 02:02:13;;;;;;;16.03;14.63;;;19.30;99.90;;;;;;5050911;28;20459;-69
2022/07/25 02:04:40;;;;;;;16.33;14.93;;;19.20;99.90;;;;;;5050479;28;20447;-68
2022/07/25 02:07:07;;;;;;;16.10;14.60;;;19.20;99.90;;;;;;5050751;28;20572;-68
2022/07/25 02:09:34;;;;;;;16.70;15.13;;;19.20;99.90;;;;;;5051118;28;20447;-69
2022/07/25 02:12:02;;;;;;;17.10;15.43;;;19.20;99.90;;;;;;5049863;28;20448;-69
2022/07/25 02:14:29;;;;;;;16.50;15.00;;;19.20;99.90;;;;;;5050271;28;20484;-68
2022/07/25 02:16:56;;;;;;;16.90;15.30;;;19.20;99.90;;;;;;5050597;28;20455;-68
2022/07/25 02:19:22;;;;;;;16.07;14.47;;;19.20;99.90;;;;;;5050555;28;20459;-68
2022/07/25 02:21:49;;;;;;;17.73;15.93;;;19.10;99.90;;;;;;5049587;28;20458;-68
2022/07/25 02:24:16;;;;;;;17.70;15.90;;;19.10;99.90;;;;;;5050332;28;20436;-68
2022/07/25 02:26:43;;;;;;;17.53;15.87;;;19.10;99.90;;;;;;5050173;28;20859;-68
2022/07/25 02:29:11;;;;;;;17.10;15.40;;;19.00;99.90;;;;;;5050550;28;20454;-69
2022/07/25 02:31:38;;;;;;;16.50;15.10;;;19.00;99.90;;;;;;5049390;28;20827;-68
2022/07/25 02:34:04;;;;;;;15.63;14.13;;;19.00;99.90;;;;;;5050307;28;21067;-69
2022/07/25 02:36:31;;;;;;;18.37;16.77;;;19.00;99.90;;;;;;5049445;28;20479;-69
2022/07/25 02:38:58;;;;;;;18.10;15.20;;;19.00;99.90;;;;;;5050354;28;20448;-68
2022/07/25 02:41:25;;;;;;;17.00;15.50;;;18.90;99.90;;;;;;5049381;28;20466;-68
2022/07/25 02:43:52;;;;;;;16.77;15.27;;;18.90;99.90;;;;;;5050162;28;20451;-69
2022/07/25 02:46:20;;;;;;;18.27;16.67;;;18.90;99.90;;;;;;5049548;28;20463;-69
2022/07/25 02:48:47;;;;;;;15.27;13.73;;;18.90;99.90;;;;;;5050031;28;20446;-68
2022/07/25 02:51:13;;;;;;;17.13;15.63;;;18.70;99.90;;;;;;5049222;28;20467;-68
2022/07/25 02:53:40;;;;;;;16.63;15.10;;;18.80;99.90;;;;;;5050009;28;20514;-68
2022/07/25 02:56:07;;;;;;;16.87;15.23;;;18.80;99.90;;;;;;5049651;28;20936;-68
2022/07/25 02:58:34;;;;;;;17.53;15.77;;;18.80;99.90;;;;;;5049890;28;20689;-68
2022/07/25 03:01:01;;;;;;;16.60;15.20;;;18.90;99.90;;;;;;5049138;28;20959;-68
2022/07/25 03:03:29;;;;;;;17.80;16.20;;;18.90;99.90;;;;;;5049795;28;20436;-68
2022/07/25 03:05:56;;;;;;;16.20;14.80;;;18.90;99.90;;;;;;5049311;28;20470;-68
2022/07/25 03:08:23;;;;;;;16.50;14.90;;;18.80;99.90;;;;;;5049894;28;20459;-68
2022/07/25 03:10:49;;;;;;;16.17;14.67;;;18.80;99.90;;;;;;5049065;28;20456;-69
2022/07/25 03:13:16;;;;;;;17.27;15.73;;;18.80;99.90;;;;;;5049594;28;20490;-69
2022/07/25 03:15:43;;;;;;;16.57;15.07;;;18.80;99.90;;;;;;5049214;28;20483;-69
2022/07/25 03:18:10;;;;;;;18.07;16.27;;;18.80;99.90;;;;;;5049706;28;20448;-68
2022/07/25 03:20:38;;;;;;;17.53;15.90;;;18.80;99.90;;;;;;5048717;28;20450;-68
2022/07/25 03:23:05;;;;;;;17.23;15.63;;;18.70;99.90;;;;;;5049714;28;20458;-68
2022/07/25 03:25:31;;;;;;;17.97;16.37;;;18.70;99.90;;;;;;5049126;28;21028;-68
2022/07/25 03:27:58;;;;;;;17.43;15.67;;;18.60;99.90;;;;;;5049584;28;20938;-68
2022/07/25 03:30:25;;;;;;;17.63;16.03;;;18.50;99.90;;;;;;5048578;28;20448;-68
2022/07/25 03:32:52;;;;;;;17.40;15.73;;;18.50;99.90;;;;;;5049658;28;20451;-68
2022/07/25 03:35:18;;;;;;;17.90;16.23;;;18.50;99.90;;;;;;5048849;28;20545;-68
2022/07/25 03:37:47;;;;;;;17.80;16.10;;;18.50;99.90;;;;;;5049297;28;20459;-68
2022/07/25 03:40:14;;;;;;;16.40;14.83;;;18.50;99.90;;;;;;5048674;28;20471;-68
2022/07/25 03:42:41;;;;;;;17.53;15.93;;;18.50;99.90;;;;;;5049544;28;20448;-68
2022/07/25 03:45:09;;;;;;;17.17;15.47;;;18.50;99.90;;;;;;5048873;28;20459;-67
2022/07/25 03:47:37;;;;;;;17.00;15.30;;;18.40;99.90;;;;;;5049512;28;20517;-68
2022/07/25 03:50:04;;;;;;;16.90;15.30;;;18.40;99.90;;;;;;5048296;28;20451;-68
2022/07/25 03:52:31;;;;;;;17.03;15.47;;;18.50;99.90;;;;;;5049680;28;20432;-68
2022/07/25 03:54:59;;;;;;;16.47;14.97;;;18.50;99.90;;;;;;5049778;28;20487;-68
2022/07/25 03:57:26;;;;;;;16.90;15.23;;;18.50;99.90;;;;;;5053270;28;20448;-69
2022/07/25 03:59:53;;;;;;;17.97;16.30;;;18.50;99.90;;;;;;5052303;28;20829;-68
2022/07/25 04:02:19;;;;;;;17.80;16.00;;;18.50;99.90;;;;;;5053216;28;20448;-69
2022/07/25 04:04:46;;;;;;;17.50;15.27;;;18.50;99.90;;;;;;5052803;28;22216;-68
2022/07/25 04:07:13;;;;;;;16.23;14.73;;;18.50;99.90;;;;;;5053170;28;20451;-67
2022/07/25 04:09:41;;;;;;;17.93;16.17;;;18.50;99.90;;;;;;5053106;28;20854;-67
2022/07/25 04:12:09;;;;;;;16.50;15.10;;;18.40;99.90;;;;;;5052319;28;20448;-68
2022/07/25 04:14:36;;;;;;;19.40;17.60;;;18.40;99.90;;;;;;5052462;28;20484;-67
2022/07/25 04:17:03;;;;;;;18.77;15.80;;;18.50;99.90;;;;;;5052837;28;20942;-67
2022/07/25 04:19:30;;;;;;;16.67;15.07;;;18.50;99.90;;;;;;5053000;28;20521;-68
2022/07/25 04:21:56;;;;;;;17.13;15.50;;;18.60;99.90;;;;;;5052094;28;20446;-68
2022/07/25 04:24:23;;;;;;;17.97;16.27;;;18.70;99.90;;;;;;5052358;28;20444;-68
2022/07/25 04:26:50;;;;;;;16.60;14.90;;;18.80;99.90;;;;;;5052265;28;20498;-68
2022/07/25 04:29:18;;;;;;;16.63;14.50;;;18.80;99.90;;;;;;5052655;28;20440;-66
2022/07/25 04:31:45;;;;;;;16.90;15.40;;;18.70;99.90;;;;;;5051882;28;20448;-67
2022/07/25 04:34:12;;;;;;;15.77;14.27;;;18.80;99.90;;;;;;5052532;28;20479;-67
2022/07/25 04:36:38;;;;;;;17.07;15.53;;;18.80;99.90;;;;;;5052006;28;20476;-65
2022/07/25 04:39:05;;;;;;;16.73;15.23;;;18.90;99.90;;;;;;5052266;28;20487;-66
2022/07/25 04:41:32;;;;;;;18.13;16.33;;;18.80;99.90;;;;;;5051325;28;20443;-65
2022/07/25 04:43:59;;;;;;;17.37;15.77;;;18.90;99.90;;;;;;5052367;28;20455;-66
2022/07/25 04:46:27;;;;;;;17.80;16.03;;;19.00;99.90;;;;;;5051679;28;20503;-67
2022/07/25 04:48:56;;;;;;;17.33;15.57;;;19.00;99.90;;;;;;5056146;28;20969;-67
2022/07/25 04:51:23;;;;;;;17.73;16.13;;;19.00;99.90;;;;;;5064326;28;20444;-67
2022/07/25 04:53:50;;;;;;;16.80;15.40;;;19.00;99.90;;;;;;5062729;28;20490;-68
2022/07/25 04:56:17;;;;;;;16.40;14.93;;;19.10;99.90;;;;;;5057713;28;20467;-67
2022/07/25 04:58:44;;;;;;;18.30;16.70;;;19.20;99.90;;;;;;5063018;28;20454;-68
2022/07/25 05:01:11;;;;;;;16.10;14.60;;;19.30;99.90;;;;;;5056897;28;21023;-65
2022/07/25 05:03:39;;;;;;;20.07;18.27;;;19.30;99.90;;;;;;5062055;28;20510;-67
2022/07/25 05:06:07;;;;;;;18.80;17.17;;;19.40;99.90;;;;;;5060411;28;20490;-68
2022/07/25 05:08:33;;;;;;;18.80;16.70;;;19.40;99.90;;;;;;5062891;28;20459;-65
2022/07/25 05:11:00;;;;;;;16.80;15.30;;;19.60;99.90;;;;;;5053814;28;20465;-67
2022/07/25 05:13:27;;;;;;;17.00;15.47;;;19.70;99.90;;;;;;5055425;28;20798;-67
2022/07/25 05:15:54;;;;;;;17.23;15.73;;;19.80;99.90;;;;;;5059852;28;20482;-68
2022/07/25 05:18:21;;;;;;;15.97;14.60;;;19.90;99.90;;;;;;5059455;28;20442;-69
2022/07/25 05:20:49;;;;;;;17.93;16.33;;;20.00;99.90;;;;;;5058796;28;20505;-68
2022/07/25 05:23:16;;;;;;;17.40;14.50;;;20.00;99.90;;;;;;5061252;28;20449;-68
2022/07/25 05:25:43;;;;;;;17.07;15.60;;;20.20;99.90;;;;;;5061675;28;20463;-68
2022/07/25 05:28:10;;;;;;;17.53;15.83;;;20.40;99.90;;;;;;5058571;28;20443;-66
2022/07/25 05:30:36;;;;;;;16.40;14.80;;;20.40;99.90;;;;;;5066746;28;20451;-68
2022/07/25 05:33:04;;;;;;;17.10;15.30;;;20.50;99.90;;;;;;5065890;28;20959;-68
2022/07/25 05:35:30;;;;;;;16.27;14.77;;;20.50;99.90;;;;;;5065314;28;20516;-68
2022/07/25 05:37:59;;;;;;;15.43;14.03;;;20.60;99.90;;;;;;5070974;28;20455;-68
2022/07/25 05:40:26;;;;;;;16.67;15.13;;;20.60;99.90;;;;;;5070274;28;20550;-69
2022/07/25 05:42:53;;;;;;;16.00;14.60;;;20.70;99.90;;;;;;5070917;28;20447;-69
2022/07/25 05:45:19;;;;;;;16.63;14.57;;;20.90;99.90;;;;;;5070880;28;20471;-68
2022/07/25 05:47:46;;;;;;;16.17;14.67;;;20.90;99.90;;;;;;5073720;28;20447;-69
2022/07/25 05:50:13;;;;;;;15.53;14.13;;;21.00;99.90;;;;;;5069597;28;20447;-68
2022/07/25 05:52:40;;;;;;;16.07;14.33;;;21.10;99.90;;;;;;5071377;28;20526;-69
2022/07/25 05:55:09;;;;;;;14.63;13.33;;;21.20;99.90;;;;;;5072889;28;20489;-69
2022/07/25 05:57:36;;;;;;;14.83;13.43;;;21.30;99.90;;;;;;5070560;28;20451;-68
2022/07/25 06:00:05;;;;;;;14.37;12.87;;;21.40;99.90;;;;;;5069890;28;20933;-69
2022/07/25 06:02:32;;;;;;;15.77;13.50;;;21.50;99.90;;;;;;5069006;28;20960;-68
2022/07/25 06:04:59;;;;;;;14.90;13.60;;;21.70;99.90;;;;;;5069805;28;20467;-69
2022/07/25 06:07:26;;;;;;;14.10;12.80;;;21.80;99.90;;;;;;5070168;28;20446;-69
2022/07/25 06:09:52;;;;;;;14.50;13.20;;;21.90;99.90;;;;;;5066983;28;20457;-69
2022/07/25 06:12:21;;;;;;;14.17;12.73;;;22.10;99.90;;;;;;5068461;28;20449;-68
2022/07/25 06:14:47;;;;;;;13.60;12.40;;;22.20;99.90;;;;;;5066480;28;21008;-65
2022/07/25 06:17:14;;;;;;;14.43;12.63;;;22.40;99.90;;;;;;5068793;28;20449;-69
2022/07/25 06:19:41;;;;;;;14.43;13.13;;;22.50;99.90;;;;;;5068899;28;20447;-69
2022/07/25 06:22:08;;;;;;;14.97;13.60;;;22.60;99.90;;;;;;5066899;28;20458;-68
2022/07/25 06:24:35;;;;;;;14.50;13.27;;;22.80;99.90;;;;;;5065889;28;20458;-68
2022/07/25 06:27:02;;;;;;;13.80;12.60;;;22.90;99.90;;;;;;5069874;28;20443;-68
2022/07/25 06:29:30;;;;;;;12.97;11.93;;;23.00;99.90;;;;;;5070204;28;20439;-67
2022/07/25 06:31:57;;;;;;;13.47;12.37;;;23.10;99.90;;;;;;5067055;28;20447;-68
2022/07/25 06:34:24;;;;;;;13.30;12.10;;;23.20;99.90;;;;;;5069114;28;21129;-68
2022/07/25 06:36:51;;;;;;;13.30;12.10;;;23.30;99.90;;;;;;5069977;28;20485;-68
2022/07/25 06:39:17;;;;;;;14.17;12.87;;;23.50;99.90;;;;;;5069622;28;20448;-67
2022/07/25 06:41:44;;;;;;;14.13;12.73;;;23.70;99.90;;;;;;5068486;28;21036;-66
2022/07/25 06:44:11;;;;;;;13.47;12.37;;;23.90;99.90;;;;;;5068934;28;20439;-68
2022/07/25 06:46:39;;;;;;;13.20;12.10;;;24.00;99.90;;;;;;5067743;28;20463;-68
2022/07/25 06:49:06;;;;;;;13.83;12.53;;;24.20;99.90;;;;;;5067304;28;20452;-68
2022/07/25 06:51:33;;;;;;;12.47;11.37;;;24.30;99.90;;;;;;5068697;28;20445;-68
2022/07/25 06:54:00;;;;;;;12.43;11.40;;;24.50;99.90;;;;;;5062279;28;20458;-68
2022/07/25 06:56:30;;;;;;;13.20;12.07;;;24.50;99.90;;;;;;5063966;28;20460;-68
2022/07/25 06:58:58;;;;;;;12.47;11.37;;;24.70;99.90;;;;;;5066009;28;20447;-68
2022/07/25 07:01:25;;;;;;;13.00;11.90;;;24.80;99.90;;;;;;5063394;28;20920;-68
2022/07/25 07:03:53;;;;;;;12.90;11.83;;;24.90;99.90;;;;;;5069637;28;20946;-68
2022/07/25 07:06:20;;;;;;;12.03;11.03;;;25.10;99.90;;;;;;5068612;28;20858;-68
2022/07/25 07:08:47;;;;;;;13.30;12.10;;;25.40;99.90;;;;;;5059923;28;20452;-68
2022/07/25 07:11:14;;;;;;;12.73;11.63;;;25.50;99.90;;;;;;5062645;28;20530;-67
2022/07/25 07:13:41;;;;;;;12.73;11.63;;;25.60;99.90;;;;;;5065226;28;20447;-68
2022/07/25 07:16:08;;;;;;;12.27;11.17;;;25.60;99.90;;;;;;5062441;28;20475;-68
2022/07/25 07:18:35;;;;;;;13.97;12.73;;;25.70;99.90;;;;;;5068252;28;20451;-68
2022/07/25 07:21:03;;;;;;;12.23;11.10;;;25.80;99.90;;;;;;5068565;28;20859;-67
2022/07/25 07:23:31;;;;;;;12.80;11.70;;;25.90;99.90;;;;;;5069300;28;20447;-68
2022/07/25 07:25:58;;;;;;;14.17;12.70;;;26.00;99.90;;;;;;5068820;28;20978;-67
2022/07/25 07:28:25;;;;;;;15.33;13.23;;;26.10;99.90;;;;;;5069154;28;20442;-68
2022/07/25 07:30:51;;;;;;;13.63;11.60;;;26.20;99.90;;;;;;5071283;28;20486;-68
2022/07/25 07:33:18;;;;;;;15.80;13.13;;;26.20;99.90;;;;;;5067282;28;20440;-68
2022/07/25 07:35:45;;;;;;;12.90;11.70;;;26.30;99.90;;;;;;5068719;28;20495;-66
2022/07/25 07:38:13;;;;;;;11.77;10.70;;;26.30;99.90;;;;;;5069646;28;20485;-67
2022/07/25 07:40:40;;;;;;;13.93;12.60;;;26.40;99.90;;;;;;5068979;28;21216;-67
2022/07/25 07:43:07;;;;;;;13.33;11.93;;;26.60;99.90;;;;;;5073512;28;20450;-68
2022/07/25 07:45:34;;;;;;;13.90;12.03;;;26.70;99.90;;;;;;5069372;28;20484;-67
2022/07/25 07:48:01;;;;;;;14.43;12.93;;;26.80;99.90;;;;;;5070345;28;20443;-68
2022/07/25 07:50:28;;;;;;;12.67;11.67;;;26.90;99.90;;;;;;5072383;28;20435;-67
2022/07/25 07:52:57;;;;;;;12.93;11.73;;;27.00;99.90;;;;;;5073249;28;20478;-67
2022/07/25 07:58:10;;;;;;;12.87;11.77;;;27.30;99.90;;;;;;5071493;28;20605;-68
2022/07/25 08:00:38;;;;;;;12.90;11.70;;;27.30;99.90;;;;;;5066191;28;20947;-68
2022/07/25 08:03:07;;;;;;;12.60;11.50;;;27.50;99.90;;;;;;5062252;28;20797;-68
2022/07/25 08:05:37;;;;;;;12.73;11.70;;;27.60;99.90;;;;;;5065491;28;20967;-68
2022/07/25 08:08:08;;;;;;;13.10;12.00;;;27.60;99.90;;;;;;5068577;28;20451;-68
2022/07/25 08:10:38;;;;;;;12.80;11.80;;;27.70;99.90;;;;;;5068135;28;20830;-68
2022/07/25 08:13:14;;;;;;;13.57;12.37;;;27.90;99.90;;;;;;5067335;28;20512;-68
2022/07/25 08:15:41;;;;;;;13.23;12.10;;;28.10;99.90;;;;;;5069071;28;20544;-68
2022/07/25 08:18:08;;;;;;;13.23;12.03;;;28.20;99.90;;;;;;5072413;28;20450;-69
2022/07/25 08:20:35;;;;;;;14.20;12.97;;;28.30;99.90;;;;;;5072230;28;20522;-68
2022/07/25 08:23:02;;;;;;;13.90;12.50;;;28.30;99.90;;;;;;5072790;28;20451;-68
2022/07/25 08:25:29;;;;;;;13.63;12.53;;;28.40;99.90;;;;;;5072271;28;20463;-68
2022/07/25 08:28:01;;;;;;;12.63;11.33;;;28.50;99.90;;;;;;5066745;28;20554;-69
2022/07/25 08:30:27;;;;;;;13.30;12.10;;;28.70;99.90;;;;;;5059369;28;20457;-68
2022/07/25 08:32:56;;;;;;;13.50;12.10;;;28.80;99.90;;;;;;5069550;28;21185;-68
2022/07/25 08:35:25;;;;;;;13.53;12.23;;;29.00;99.90;;;;;;5072129;28;20489;-69
2022/07/25 08:37:52;;;;;;;12.87;11.70;;;29.10;99.90;;;;;;5066330;28;20477;-68
2022/07/25 08:40:21;;;;;;;12.83;11.93;;;29.20;99.90;;;;;;5071455;28;20455;-69
2022/07/25 08:42:48;;;;;;;13.70;12.37;;;29.30;99.90;;;;;;5072346;28;20841;-68
2022/07/25 08:45:18;;;;;;;12.50;11.50;;;29.40;99.90;;;;;;5071517;28;20467;-68
2022/07/25 08:47:45;;;;;;;13.67;12.47;;;29.50;99.90;;;;;;5072771;28;20561;-68
2022/07/25 08:50:14;;;;;;;14.70;13.30;;;29.60;99.90;;;;;;5071301;28;20462;-68
2022/07/25 08:52:43;;;;;;;12.87;11.77;;;29.60;99.90;;;;;;5072349;28;20462;-67
2022/07/25 08:55:13;;;;;;;14.17;12.97;;;29.80;99.90;;;;;;5071653;28;20498;-69
2022/07/25 08:57:42;;;;;;;14.30;13.00;;;29.90;99.20;;;;;;5071904;28;20489;-68
2022/07/25 09:00:11;;;;;;;13.27;12.10;;;29.90;98.80;;;;;;5071200;28;20887;-67
2022/07/25 09:02:40;;;;;;;13.50;12.20;;;30.10;97.90;;;;;;5061303;28;20505;-69
2022/07/25 09:05:08;;;;;;;13.30;12.00;;;30.20;97.80;;;;;;5071291;28;20465;-68
2022/07/25 09:07:37;;;;;;;13.43;12.33;;;30.30;97.90;;;;;;5071987;28;20516;-69
2022/07/25 09:10:16;;;;;;;14.77;13.47;;;30.50;97.00;;;;;;5071052;28;20492;-68
2022/07/25 09:12:51;;;;;;;19.03;13.23;;;30.80;96.90;;;;;;5068401;28;20453;-68
2022/07/25 09:15:28;;;;;;;13.00;11.90;;;30.90;97.00;;;;;;5067795;28;20479;-68
2022/07/25 09:17:57;;;;;;;12.30;11.40;;;31.20;94.50;;;;;;5059524;28;20463;-69
2022/07/25 09:20:24;;;;;;;12.80;11.57;;;31.40;95.00;;;;;;5063290;28;20964;-69
2022/07/25 09:22:51;;;;;;;13.33;12.30;;;31.50;93.90;;;;;;5067488;28;20454;-68
2022/07/25 09:25:22;;;;;;;13.87;12.47;;;31.60;93.20;;;;;;5070817;28;20471;-68
2022/07/25 09:27:49;;;;;;;12.77;11.73;;;31.70;94.00;;;;;;5071096;28;20443;-68
2022/07/25 09:30:17;;;;;;;13.80;12.70;;;31.80;93.40;;;;;;5070424;28;20443;-67
2022/07/25 09:32:44;;;;;;;12.40;11.20;;;31.90;93.20;;;;;;5070387;28;20455;-68
2022/07/25 09:35:12;;;;;;;13.37;12.30;;;32.00;94.00;;;;;;5068316;28;20479;-69
2022/07/25 09:37:39;;;;;;;13.93;12.83;;;32.20;92.80;;;;;;5067541;28;21010;-68
2022/07/25 09:40:14;;;;;;;13.27;12.10;;;32.20;91.00;;;;;;5067155;28;20457;-68
2022/07/25 09:42:41;;;;;;;12.60;11.60;;;32.10;90.40;;;;;;5070952;28;20588;-68
2022/07/25 09:45:11;;;;;;;12.30;11.30;;;32.20;91.00;;;;;;5064608;28;20508;-68
2022/07/25 09:47:49;;;;;;;13.47;12.47;;;32.40;90.20;;;;;;5069680;28;20968;-68
2022/07/25 09:50:18;;;;;;;12.00;11.00;;;32.60;87.80;;;;;;5066411;28;20508;-68
2022/07/25 09:52:45;;;;;;;12.00;10.90;;;32.60;85.40;;;;;;5065322;28;20451;-67
2022/07/25 09:55:14;;;;;;;11.00;10.00;;;32.70;82.30;;;;;;5067894;28;20468;-68
2022/07/25 09:57:41;;;;;;;12.40;11.30;;;32.90;82.10;;;;;;5069551;28;20478;-68
2022/07/25 10:00:09;;;;;;;11.50;10.47;;;33.20;80.60;;;;;;5063934;28;21013;-68
2022/07/25 10:02:43;;;;;;;11.47;10.40;;;33.50;79.10;;;;;;5065626;28;20965;-68
2022/07/25 10:05:14;;;;;;;10.73;9.83;;;34.10;77.60;;;;;;5066451;28;20467;-67
2022/07/25 10:07:47;;;;;;;10.67;9.73;;;34.90;74.50;;;;;;5063852;28;20451;-68
2022/07/25 10:10:37;;;;;;;10.70;9.80;;;35.20;72.40;;;;;;5063220;28;20467;-68
2022/07/25 10:13:09;;;;;;;11.23;10.30;;;35.50;70.30;;;;;;5062859;28;20454;-69
2022/07/25 10:15:47;;;;;;;11.63;10.50;;;35.80;69.80;;;;;;5063132;28;20578;-68
2022/07/25 10:18:15;;;;;;;10.23;9.40;;;36.30;66.80;;;;;;5063861;28;20450;-69
2022/07/25 10:20:43;;;;;;;10.17;9.37;;;36.70;64.60;;;;;;5068964;28;20439;-67
2022/07/25 10:23:25;;;;;;;10.63;9.73;;;36.70;63.10;;;;;;5064397;28;20450;-68
2022/07/25 10:26:03;;;;;;;9.83;9.00;;;36.50;63.50;;;;;;5067827;28;20458;-69
2022/07/25 10:28:52;;;;;;;10.57;9.77;;;36.80;64.10;;;;;;5057362;28;20603;-66
2022/07/25 10:31:21;;;;;;;9.50;8.70;;;37.60;59.00;;;;;;5047365;28;20543;-66
2022/07/25 10:33:51;;;;;;;9.63;8.83;;;37.60;58.90;;;;;;5066525;28;20453;-66
2022/07/25 10:36:19;;;;;;;10.07;9.17;;;37.10;58.30;;;;;;5063678;28;20492;-68
2022/07/25 10:38:47;;;;;;;9.93;9.23;;;36.90;59.00;;;;;;5064734;28;20439;-69
2022/07/25 10:41:16;;;;;;;11.20;9.17;;;36.90;59.30;;;;;;5066048;28;20514;-69
2022/07/25 10:43:45;;;;;;;9.30;8.40;;;36.90;58.80;;;;;;5061316;28;20866;-69
2022/07/25 10:46:13;;;;;;;8.97;8.27;;;36.80;58.50;;;;;;5069105;28;20467;-69
2022/07/25 10:48:41;;;;;;;9.47;8.57;;;37.50;58.30;;;;;;5069682;28;20444;-69
2022/07/25 10:51:09;;;;;;;8.83;8.13;;;38.00;55.70;;;;;;5068891;28;20448;-68
2022/07/25 10:53:38;;;;;;;9.37;8.57;;;37.80;57.50;;;;;;5069867;28;20451;-69
2022/07/25 10:56:15;;;;;;;8.80;8.10;;;38.10;54.90;;;;;;5067843;28;20486;-70
2022/07/25 10:58:48;;;;;;;9.20;8.50;;;38.10;55.40;;;;;;5064573;28;20797;-69
2022/07/25 11:01:20;;;;;;;9.43;8.63;;;38.00;56.00;;;;;;5069149;28;20439;-69
2022/07/25 11:03:47;;;;;;;9.00;8.10;;;37.90;54.50;;;;;;5069963;28;20464;-69
2022/07/25 11:06:15;;;;;;;8.73;7.93;;;37.50;55.00;;;;;;5069248;28;20972;-68
2022/07/25 11:08:43;;;;;;;9.10;8.40;;;37.70;54.40;;;;;;5069294;28;20447;-66
2022/07/25 11:11:12;;;;;;;8.83;8.13;;;38.30;56.00;;;;;;5068272;28;20477;-65
2022/07/25 11:13:39;;;;;;;9.00;8.20;;;38.90;54.80;;;;;;5069909;28;20451;-66
2022/07/25 11:16:06;;;;;;;8.70;8.00;;;39.40;52.00;;;;;;5069229;28;20487;-66
2022/07/25 11:18:36;;;;;;;9.00;8.27;;;39.40;50.90;;;;;;5069761;28;20469;-67
2022/07/25 11:21:05;;;;;;;9.10;8.27;;;38.60;50.40;;;;;;5068818;28;20443;-69
2022/07/25 11:23:32;;;;;;;9.60;8.90;;;38.60;52.70;;;;;;5069559;28;20530;-69
2022/07/25 11:26:10;;;;;;;7.90;7.30;;;38.30;51.00;;;;;;5069287;28;20469;-67
2022/07/25 11:28:40;;;;;;;8.00;7.20;;;38.90;53.20;;;;;;5065378;28;20984;-64
2022/07/25 11:31:07;;;;;;;7.73;7.17;;;39.60;50.60;;;;;;5065506;28;20443;-67
2022/07/25 11:33:34;;;;;;;8.07;7.30;;;39.60;49.70;;;;;;5069349;28;20469;-68
2022/07/25 11:36:02;;;;;;;7.53;6.83;;;39.20;49.90;;;;;;5062568;28;20478;-69
2022/07/25 11:38:29;;;;;;;8.50;7.80;;;39.30;51.50;;;;;;5069606;28;20815;-69
2022/07/25 11:40:56;;;;;;;9.10;8.33;;;39.60;51.70;;;;;;5068738;28;20451;-66
2022/07/25 11:43:24;;;;;;;8.43;7.80;;;38.90;50.10;;;;;;5065917;28;20807;-67
2022/07/25 11:46:00;;;;;;;8.57;6.80;;;38.80;51.60;;;;;;5068013;28;20463;-66
2022/07/25 11:48:35;;;;;;;7.93;7.33;;;38.70;49.50;;;;;;5058621;28;20456;-69
2022/07/25 11:51:10;;;;;;;8.27;7.67;;;38.60;48.80;;;;;;5060860;28;20448;-68
2022/07/25 11:53:42;;;;;;;7.60;7.07;;;38.50;49.90;;;;;;5063114;28;20990;-67
2022/07/25 11:56:13;;;;;;;7.40;6.70;;;38.30;52.00;;;;;;5062362;28;20483;-67
2022/07/25 11:58:40;;;;;;;7.50;6.90;;;38.40;49.90;;;;;;5068590;28;20464;-67
2022/07/25 12:01:14;;;;;;;7.50;6.90;;;38.80;51.30;;;;;;5067106;28;20460;-67
2022/07/25 12:03:42;;;;;;;7.00;6.50;;;39.30;48.90;;;;;;5062581;28;20960;-68
2022/07/25 12:06:10;;;;;;;7.40;6.80;;;39.30;48.40;;;;;;5058916;28;20468;-67
2022/07/25 12:08:39;;;;;;;7.10;6.50;;;40.10;49.40;;;;;;5068112;28;20451;-67
2022/07/25 12:11:17;;;;;;;7.13;6.50;;;40.70;48.60;;;;;;5063207;28;20451;-66
2022/07/25 12:13:44;;;;;;;7.23;6.63;;;41.20;48.10;;;;;;5067072;28;20461;-67
2022/07/25 12:16:12;;;;;;;7.37;6.77;;;40.60;46.00;;;;;;5064482;28;20581;-67
2022/07/25 12:18:39;;;;;;;8.00;7.20;;;39.60;46.70;;;;;;5072136;28;20434;-67
2022/07/25 12:21:06;;;;;;;8.50;7.70;;;38.00;48.20;;;;;;5056286;28;20527;-69
2022/07/25 12:23:34;;;;;;;8.03;7.30;;;37.40;49.90;;;;;;5058775;28;20446;-68
2022/07/25 12:26:01;;;;;;;8.00;7.07;;;36.70;51.60;;;;;;5069930;28;20854;-68
2022/07/25 12:28:28;;;;;;;7.27;6.60;;;36.20;51.60;;;;;;5071149;28;20991;-68
2022/07/25 12:30:54;;;;;;;9.10;6.83;;;36.50;52.20;;;;;;5065304;28;21015;-69
2022/07/25 12:33:23;;;;;;;7.50;6.80;;;36.70;52.40;;;;;;5059223;28;20443;-68
2022/07/25 12:35:50;;;;;;;7.73;7.03;;;37.30;50.70;;;;;;5065639;28;20466;-68
2022/07/25 12:38:17;;;;;;;7.50;6.90;;;37.60;50.90;;;;;;5071975;28;20450;-69